Paducah, KY (42003)

7:27 AM CDT on September 05, 2015 (GMT -0500)
Ricks Place Paducah, KY | | Change Station
CLOSE
Current Station
Personal Weather Station
Location: Paducah, KY
Elevation: 351 ft
Nearby Weather Stations

Elev 351 ft 37.07 °N, 88.62 °W | Updated 8 minutes ago

Fog
Fog
71.9 °F
Feels Like 70 °F
N
0.0
Wind Variable Wind from ESE

Today
High -- | Low -- °F
--% Chance of Precip.
Yesterday
High -- | Low -- °F
Precip. -- in
6:28 AM 7:17 PM
Waning Gibbous, 49% visible
Pressure 30.07 in
Visibility 1.2 miles
Clouds Few 600 ft
Heat Index 70 °F
Dew Point 68 °F
Humidity 87%
Rainfall 0.00 in
Snow Depth Not available.
UV 0 out of 12
Pollen 10.80 out of 12
Air Quality Not available.
Flu Activity Not available.
SPECI KPAH 051159Z 00000KT 1 1/4SM BR FEW006 19/18 A3007 RMK AO2 T01940183 $
Pressure 30.07 in
Visibility 1.2 miles
Clouds Few 600 ft
Heat Index 70 °F
Dew Point 68 °F
Humidity 87%
Rainfall 0.00 in
Snow Depth Not available.
UV 0 out of 12
Pollen 10.80 out of 12
Air Quality Not available.
Flu Activity Not available.
SPECI KPAH 051159Z 00000KT 1 1/4SM BR FEW006 19/18 A3007 RMK AO2 T01940183 $

10-Day Weather Forecast

×

Almanac

Astronomy

Sep. 05, 2015 Rise Set
Actual Time
Civil Twilight
Nautical Twilight
Astronomical Twilight
Moon
Length of Visible Light
Length of Day
Tomorrow will be .
, % of the Moon is Illuminated

Today's Extremes

State Highs State Lows

Community

WunderPhotos

Upload Photos

1,852,455 photos uploaded!

WunderBlogs® & News

Nearby

Air Quality

  Air Quality AQ Index Pollutant
Not available.

Snow Depth

Station Depth Elevation

Earthquake Activity

City Distance Mag. Time & Date
Minimum magnitude displayed is 2.5.

Coastal Water Temperatures

Place Temperature

Stations

Nearby Weather Stations

Station Location Temp. Windchill Dew Point Humidity Wind Precip. Elev Updated Type